Saint Anthony, Canada
Current Conditions -  °F | °C
As of 3:00 AM on Wednesday 26 Nov 2014 (Local Time) from CYAY Reporting Station
Broken Clouds Broken Clouds  
Wind Chill: 26°   Ceiling: 6500
Heat Index: 39°   Visibility: 9mi
Dew Point: 34°   Wind: 38mph
Humidity: 81%   Direction: 230°SW
Pressure: 29.38"   Gusts: 47mph
Location:  51.48°N, 55.81°W
Report Text: CYAY 260600Z AUTO 23033G41KT 9SM BKN065 04/01 A2938 RMK PRESRR SLP949
Loading
Personal Weather Stations






























Interactive Weather Map New forecast layout! Learn more

10-Day Weather Forecast

Advertisements
Track Severe Weather on mobile